createdAt,value
2023-02-06T00:01:32.752Z,15.43
2023-02-06T00:04:00.782Z,15.10
2023-02-06T00:06:28.758Z,15.88
2023-02-06T00:08:56.645Z,16.55
2023-02-06T00:11:24.907Z,16.88
2023-02-06T00:13:53.049Z,15.20
2023-02-06T00:16:23.434Z,14.02
2023-02-06T00:18:53.379Z,13.07
2023-02-06T00:21:22.556Z,14.15
2023-02-06T00:23:50.698Z,13.05
2023-02-06T00:26:21.785Z,14.57
2023-02-06T00:28:52.229Z,13.63
2023-02-06T00:31:21.246Z,13.43
2023-02-06T00:33:53.576Z,13.13
2023-02-06T00:36:22.575Z,14.57
2023-02-06T00:38:53.768Z,16.20
2023-02-06T00:41:22.579Z,15.67
2023-02-06T00:43:54.574Z,15.57
2023-02-06T00:46:25.998Z,13.88
2023-02-06T00:48:57.827Z,13.97
2023-02-06T00:51:27.124Z,13.27
2023-02-06T00:53:56.034Z,13.70
2023-02-06T00:56:23.883Z,13.90
2023-02-06T00:58:51.697Z,15.87
2023-02-06T01:01:19.557Z,13.83
2023-02-06T01:03:47.389Z,14.43
2023-02-06T01:06:16.865Z,14.43
2023-02-06T01:08:44.723Z,13.10
2023-02-06T01:11:13.580Z,13.97
2023-02-06T01:13:42.034Z,14.15
2023-02-06T01:16:10.838Z,13.07
2023-02-06T01:18:38.874Z,13.40
2023-02-06T01:21:09.898Z,14.60
2023-02-06T01:23:40.293Z,15.27
2023-02-06T01:26:08.824Z,14.60
2023-02-06T01:28:37.514Z,14.70
2023-02-06T01:31:11.384Z,14.02
2023-02-06T01:33:39.534Z,15.40
2023-02-06T01:36:08.078Z,14.30
2023-02-06T01:38:36.075Z,14.15
2023-02-06T01:41:06.573Z,15.60
2023-02-06T01:43:38.057Z,14.70
2023-02-06T01:46:06.323Z,15.90
2023-02-06T01:48:39.651Z,15.18
2023-02-06T01:51:11.438Z,13.45
2023-02-06T01:53:41.585Z,15.17
2023-02-06T01:56:11.819Z,16.05
2023-02-06T01:58:43.557Z,13.70
2023-02-06T02:01:12.645Z,15.20
2023-02-06T02:03:43.665Z,14.45
2023-02-06T02:06:13.973Z,14.52
2023-02-06T02:08:43.348Z,17.30
2023-02-06T02:11:18.308Z,14.35
2023-02-06T02:13:46.484Z,13.45
2023-02-06T02:16:20.824Z,15.33
2023-02-06T02:19:04.109Z,13.57
2023-02-06T02:22:07.612Z,14.43
2023-02-06T02:25:02.613Z,15.85
2023-02-06T02:27:45.730Z,14.63
2023-02-06T02:30:38.240Z,13.98
2023-02-06T02:33:26.931Z,14.20
2023-02-06T02:36:04.096Z,14.63
2023-02-06T02:38:44.089Z,16.58
2023-02-06T02:41:20.164Z,14.95
2023-02-06T02:43:54.952Z,14.20
2023-02-06T02:46:27.534Z,15.00
2023-02-06T02:49:02.132Z,14.85
2023-02-06T02:51:33.223Z,14.70
2023-02-06T02:54:00.986Z,15.80
2023-02-06T02:56:30.390Z,14.63
2023-02-06T02:59:01.423Z,15.68
2023-02-06T03:01:34.640Z,14.07
2023-02-06T03:04:09.096Z,15.80
2023-02-06T03:06:51.573Z,16.48
2023-02-06T03:09:29.551Z,14.80
2023-02-06T03:12:11.549Z,16.25
2023-02-06T03:14:45.217Z,14.63
2023-02-06T03:17:19.657Z,16.58
2023-02-06T03:19:53.792Z,16.50
2023-02-06T03:22:25.540Z,18.63
2023-02-06T03:24:55.048Z,16.05
2023-02-06T03:27:24.737Z,16.37
2023-02-06T03:29:55.323Z,16.20
2023-02-06T03:32:26.282Z,16.57
2023-02-06T03:34:59.014Z,16.07
2023-02-06T03:37:30.363Z,17.67
2023-02-06T03:40:01.619Z,15.43
2023-02-06T03:42:31.861Z,16.08
2023-02-06T03:45:07.299Z,16.20
2023-02-06T03:47:37.514Z,16.48
2023-02-06T03:50:08.135Z,16.45
2023-02-06T03:52:41.860Z,15.23
2023-02-06T03:55:14.121Z,15.75
2023-02-06T03:57:45.216Z,13.90
2023-02-06T04:00:14.259Z,15.02
2023-02-06T04:02:43.663Z,13.60
2023-02-06T04:05:11.408Z,15.55
2023-02-06T04:07:40.870Z,13.57
2023-02-06T04:10:09.087Z,15.87
2023-02-06T04:12:36.919Z,12.43
2023-02-06T04:15:05.515Z,13.50
2023-02-06T04:17:49.834Z,13.13
2023-02-06T04:20:21.625Z,13.93
2023-02-06T04:22:50.932Z,14.83
2023-02-06T04:25:18.857Z,14.17
2023-02-06T04:27:46.822Z,14.10
2023-02-06T04:30:15.678Z,13.93
2023-02-06T04:32:43.428Z,13.48
2023-02-06T04:35:11.646Z,14.60
2023-02-06T04:37:39.544Z,13.43
2023-02-06T04:40:09.473Z,14.27
2023-02-06T04:42:37.384Z,14.33
2023-02-06T04:45:05.635Z,12.63
2023-02-06T04:47:33.562Z,13.10
2023-02-06T04:50:01.451Z,13.53
2023-02-06T04:52:29.571Z,14.40
2023-02-06T04:54:57.319Z,12.57
2023-02-06T04:57:26.717Z,12.27
2023-02-06T04:59:54.498Z,12.18
2023-02-06T05:02:22.113Z,13.53
2023-02-06T05:04:49.854Z,14.05
2023-02-06T05:07:17.952Z,12.68
2023-02-06T05:09:46.722Z,11.57
2023-02-06T05:12:14.877Z,13.98
2023-02-06T05:14:43.928Z,12.30
2023-02-06T05:17:11.712Z,11.67
2023-02-06T05:19:39.581Z,12.43
2023-02-06T05:22:07.306Z,11.80
2023-02-06T05:24:35.238Z,12.50
2023-02-06T05:27:03.291Z,11.65
2023-02-06T05:29:31.002Z,12.87
2023-02-06T05:32:00.160Z,13.35
2023-02-06T05:34:28.108Z,13.65
2023-02-06T05:36:55.811Z,13.17
2023-02-06T05:39:23.593Z,12.25
2023-02-06T05:41:51.277Z,11.77
2023-02-06T05:44:18.978Z,13.70
2023-02-06T05:46:48.271Z,13.73
2023-02-06T05:49:18.020Z,12.33
2023-02-06T05:51:45.708Z,12.47
2023-02-06T05:54:16.911Z,14.13
2023-02-06T05:56:44.744Z,12.68
2023-02-06T05:59:12.804Z,12.73
2023-02-06T06:01:40.854Z,13.85
2023-02-06T06:04:08.846Z,13.02
2023-02-06T06:06:38.461Z,11.30
2023-02-06T06:09:06.310Z,13.03
2023-02-06T06:11:34.435Z,13.97
2023-02-06T06:14:02.224Z,12.03
2023-02-06T06:16:29.942Z,15.57
2023-02-06T06:18:57.809Z,12.73
2023-02-06T06:21:25.504Z,11.77
2023-02-06T06:23:55.226Z,11.27
2023-02-06T06:26:24.634Z,11.30
2023-02-06T06:28:52.539Z,11.83
2023-02-06T06:31:20.617Z,11.63
2023-02-06T06:33:48.587Z,11.60
2023-02-06T06:36:16.658Z,10.57
2023-02-06T06:38:44.295Z,11.90
2023-02-06T06:41:13.429Z,11.17
2023-02-06T06:43:42.498Z,11.50
2023-02-06T06:46:11.407Z,14.87
2023-02-06T06:48:41.606Z,12.77
2023-02-06T06:51:10.504Z,11.20
2023-02-06T06:53:40.109Z,13.43
2023-02-06T06:56:11.239Z,11.67
2023-02-06T06:58:41.189Z,14.07
2023-02-06T07:01:09.500Z,12.90
2023-02-06T07:03:37.777Z,12.07
2023-02-06T07:06:06.401Z,13.57
2023-02-06T07:08:35.884Z,14.20
2023-02-06T07:11:03.693Z,14.53
2023-02-06T07:13:31.484Z,12.60
2023-02-06T07:16:00.661Z,13.57
2023-02-06T07:18:28.730Z,13.00
2023-02-06T07:20:56.526Z,15.50
2023-02-06T07:23:24.310Z,12.07
2023-02-06T07:25:53.145Z,12.80
2023-02-06T07:28:20.867Z,12.60
2023-02-06T07:30:48.671Z,13.97
2023-02-06T07:33:17.901Z,11.63
2023-02-06T07:35:46.030Z,11.37
2023-02-06T07:38:13.747Z,14.63
2023-02-06T07:40:45.696Z,11.80
2023-02-06T07:43:14.372Z,15.30
2023-02-06T07:45:42.907Z,13.10
2023-02-06T07:48:11.206Z,13.23
2023-02-06T07:50:40.546Z,13.37
2023-02-06T07:53:08.810Z,13.63
2023-02-06T07:55:38.858Z,14.03
2023-02-06T07:58:06.760Z,13.37
2023-02-06T08:00:34.748Z,15.03
2023-02-06T08:03:02.664Z,14.10
2023-02-06T08:05:31.155Z,15.13
2023-02-06T08:08:00.626Z,13.33
2023-02-06T08:10:29.494Z,12.87
2023-02-06T08:12:57.672Z,12.73
2023-02-06T08:15:25.815Z,13.00
2023-02-06T08:17:53.799Z,12.53
2023-02-06T08:20:22.028Z,13.20
2023-02-06T08:22:49.949Z,13.60
2023-02-06T08:25:19.251Z,15.00
2023-02-06T08:27:48.402Z,12.87
2023-02-06T08:30:16.954Z,12.87
2023-02-06T08:32:45.151Z,13.10
2023-02-06T08:35:13.103Z,14.53
2023-02-06T08:37:41.714Z,11.57
2023-02-06T08:40:10.633Z,11.43
2023-02-06T08:42:39.760Z,12.33
2023-02-06T08:45:08.476Z,14.47
2023-02-06T08:47:36.171Z,12.25
2023-02-06T08:50:04.010Z,11.00
2023-02-06T08:52:31.874Z,12.20
2023-02-06T08:54:59.610Z,13.73
2023-02-06T08:57:27.254Z,12.47
2023-02-06T08:59:56.973Z,12.10
2023-02-06T09:02:24.876Z,11.37
2023-02-06T09:04:52.724Z,11.30
2023-02-06T09:07:21.651Z,12.18
2023-02-06T09:09:49.697Z,11.95
2023-02-06T09:12:17.905Z,11.70
2023-02-06T09:14:45.866Z,13.10
2023-02-06T09:17:15.214Z,12.70
2023-02-06T09:19:43.313Z,10.93
2023-02-06T09:22:11.333Z,15.85
2023-02-06T09:24:39.490Z,11.77
2023-02-06T09:27:07.436Z,12.90
2023-02-06T09:29:35.393Z,12.87
2023-02-06T09:32:03.260Z,11.63
2023-02-06T09:34:32.431Z,12.97
2023-02-06T09:37:03.185Z,13.32
2023-02-06T09:39:32.823Z,13.65
2023-02-06T09:42:07.042Z,14.88
2023-02-06T09:44:38.187Z,14.93
2023-02-06T09:47:18.330Z,14.45
2023-02-06T09:49:51.123Z,15.18
2023-02-06T09:52:31.658Z,16.42
2023-02-06T09:55:06.550Z,16.05
2023-02-06T09:57:42.460Z,16.13
2023-02-06T10:00:21.854Z,16.55
2023-02-06T10:03:07.910Z,15.57
2023-02-06T10:05:47.617Z,17.35
2023-02-06T10:08:22.728Z,16.77
2023-02-06T10:10:54.833Z,14.18
2023-02-06T10:13:27.196Z,15.80
2023-02-06T10:15:57.445Z,16.95
2023-02-06T10:18:30.613Z,14.75
2023-02-06T10:21:05.982Z,17.30
2023-02-06T10:23:38.292Z,12.52
2023-02-06T10:26:12.312Z,14.43
2023-02-06T10:28:41.497Z,15.00
2023-02-06T10:31:20.837Z,15.10
2023-02-06T10:33:55.936Z,15.40
2023-02-06T10:36:40.611Z,13.40
2023-02-06T10:39:22.579Z,15.97
2023-02-06T10:42:01.561Z,11.35
2023-02-06T10:44:36.095Z,13.38
2023-02-06T10:47:14.817Z,16.10
2023-02-06T10:49:48.153Z,13.88
2023-02-06T10:52:23.699Z,15.50
2023-02-06T10:54:54.804Z,11.25
2023-02-06T10:57:25.370Z,12.80
2023-02-06T10:59:58.747Z,12.70
2023-02-06T11:02:29.482Z,12.00
2023-02-06T11:05:04.492Z,10.82
2023-02-06T11:07:40.161Z,12.80
2023-02-06T11:10:09.536Z,10.50
2023-02-06T11:12:39.982Z,8.50
2023-02-06T11:15:17.555Z,7.70
2023-02-06T11:17:46.239Z,7.55
2023-02-06T11:20:21.826Z,11.40
2023-02-06T11:22:53.683Z,8.33
2023-02-06T11:25:26.826Z,9.87
2023-02-06T11:27:55.588Z,7.75
2023-02-06T11:30:31.409Z,10.73
2023-02-06T11:33:04.958Z,6.72
2023-02-06T11:35:38.302Z,7.45
2023-02-06T11:38:15.271Z,7.47
2023-02-06T11:40:43.103Z,8.05
2023-02-06T11:43:20.532Z,5.68
2023-02-06T11:45:52.303Z,5.72
2023-02-06T11:48:38.008Z,7.90
2023-02-06T11:51:07.464Z,6.63
2023-02-06T11:53:37.532Z,7.30
2023-02-06T11:56:15.320Z,5.75
2023-02-06T11:58:43.619Z,6.03
2023-02-06T12:01:19.914Z,7.28
2023-02-06T12:03:55.928Z,7.60
2023-02-06T12:06:31.270Z,5.65
2023-02-06T12:09:02.240Z,6.57
2023-02-06T12:11:35.794Z,5.05
2023-02-06T12:14:08.503Z,8.63
2023-02-06T12:16:40.694Z,9.32
2023-02-06T12:19:20.309Z,7.00
2023-02-06T12:21:50.936Z,7.75
2023-02-06T12:24:32.510Z,6.35
2023-02-06T12:27:03.382Z,6.22
2023-02-06T12:29:38.054Z,6.97
2023-02-06T12:32:14.961Z,5.43
2023-02-06T12:34:53.642Z,5.75
2023-02-06T12:37:31.449Z,6.15
2023-02-06T12:40:01.618Z,5.25
2023-02-06T12:42:38.346Z,7.53
2023-02-06T12:45:16.719Z,7.47
2023-02-06T12:47:51.313Z,7.50
2023-02-06T12:50:24.281Z,6.97
2023-02-06T12:52:57.083Z,6.60
2023-02-06T12:55:30.623Z,6.88
2023-02-06T12:57:59.386Z,3.95
2023-02-06T13:00:44.969Z,5.00
2023-02-06T13:03:29.790Z,5.65
2023-02-06T13:06:11.227Z,5.50
2023-02-06T13:08:47.550Z,5.90
2023-02-06T13:11:28.712Z,7.47
2023-02-06T13:14:06.614Z,7.82
2023-02-06T13:16:44.766Z,6.00
2023-02-06T13:19:32.343Z,6.28
2023-02-06T13:22:23.066Z,6.68
2023-02-06T13:24:52.183Z,9.02
2023-02-06T13:27:25.160Z,6.80
2023-02-06T13:29:54.648Z,4.55
2023-02-06T13:32:42.291Z,5.63
2023-02-06T13:35:22.385Z,8.35
2023-02-06T13:37:51.688Z,7.18
2023-02-06T13:40:30.521Z,5.90
2023-02-06T13:43:04.238Z,6.72
2023-02-06T13:45:36.009Z,6.07
2023-02-06T13:48:29.501Z,6.00
2023-02-06T13:51:09.780Z,12.43
2023-02-06T13:54:23.485Z,11.30
2023-02-06T13:57:19.237Z,9.38
2023-02-06T13:59:51.830Z,6.53
2023-02-06T14:02:27.501Z,8.27
2023-02-06T14:04:56.180Z,7.13
2023-02-06T14:07:56.798Z,6.22
2023-02-06T14:10:55.912Z,5.05
2023-02-06T14:13:38.311Z,5.20
2023-02-06T14:16:27.703Z,5.68
2023-02-06T14:19:02.317Z,8.07
2023-02-06T14:21:43.818Z,5.35
2023-02-06T14:24:29.073Z,6.70
2023-02-06T14:27:11.143Z,7.65
2023-02-06T14:29:47.066Z,5.18
2023-02-06T14:32:33.405Z,7.63
2023-02-06T14:35:20.446Z,6.32
2023-02-06T14:38:04.889Z,8.60
2023-02-06T14:40:39.638Z,6.75
2023-02-06T14:43:12.108Z,10.25
2023-02-06T14:45:43.404Z,8.43
2023-02-06T14:48:22.042Z,7.07
2023-02-06T14:50:53.925Z,6.35
2023-02-06T14:53:26.042Z,7.38
2023-02-06T14:56:06.268Z,6.03
2023-02-06T14:58:34.108Z,5.97
2023-02-06T15:01:14.848Z,7.90
2023-02-06T15:03:45.521Z,5.97
2023-02-06T15:06:16.723Z,7.18
2023-02-06T15:08:49.954Z,8.88
2023-02-06T15:11:24.334Z,4.25
2023-02-06T15:13:54.272Z,6.25
2023-02-06T15:16:22.679Z,6.72
2023-02-06T15:18:51.927Z,6.82
2023-02-06T15:21:22.045Z,7.20
2023-02-06T15:24:00.818Z,4.88
2023-02-06T15:26:35.542Z,4.70
2023-02-06T15:29:06.838Z,7.32
2023-02-06T15:31:35.650Z,9.57
2023-02-06T15:34:05.713Z,5.80
2023-02-06T15:36:37.909Z,9.45
2023-02-06T15:39:09.563Z,7.03
2023-02-06T15:41:38.864Z,7.03
2023-02-06T15:44:13.277Z,10.13
2023-02-06T15:46:41.683Z,6.80
2023-02-06T15:49:19.084Z,7.22
2023-02-06T15:51:55.154Z,5.60
2023-02-06T15:54:25.202Z,6.95
2023-02-06T15:56:57.402Z,4.95
2023-02-06T15:59:27.617Z,7.03
2023-02-06T16:01:58.660Z,6.43
2023-02-06T16:04:31.395Z,7.72
2023-02-06T16:07:03.344Z,6.30
2023-02-06T16:09:31.952Z,8.80
2023-02-06T16:12:00.127Z,7.53
2023-02-06T16:14:35.325Z,14.07
2023-02-06T16:17:07.171Z,5.20
2023-02-06T16:19:48.377Z,9.52
2023-02-06T16:22:25.393Z,9.47
2023-02-06T16:24:55.065Z,6.70
2023-02-06T16:27:25.776Z,8.68
2023-02-06T16:29:57.480Z,8.73
2023-02-06T16:32:29.345Z,7.87
2023-02-06T16:35:01.357Z,7.28
2023-02-06T16:37:32.008Z,6.53
2023-02-06T16:39:59.900Z,8.27
2023-02-06T16:42:34.295Z,10.20
2023-02-06T16:45:10.180Z,8.73
2023-02-06T16:47:38.148Z,7.65
2023-02-06T16:50:10.383Z,6.20
2023-02-06T16:52:41.646Z,5.88
2023-02-06T16:55:17.559Z,9.35
2023-02-06T16:57:46.897Z,5.77
2023-02-06T17:00:19.538Z,5.87
2023-02-06T17:02:47.681Z,3.92
2023-02-06T17:05:17.793Z,7.07
2023-02-06T17:07:46.431Z,7.03
2023-02-06T17:10:14.935Z,9.47
2023-02-06T17:12:45.077Z,8.43
2023-02-06T17:15:14.042Z,8.93
2023-02-06T17:17:42.251Z,9.50
2023-02-06T17:20:31.798Z,11.90
2023-02-06T17:23:00.548Z,7.03
2023-02-06T17:25:28.819Z,10.13
2023-02-06T17:27:56.744Z,8.20
2023-02-06T17:30:25.751Z,10.65
2023-02-06T17:32:53.618Z,15.30
2023-02-06T17:35:21.824Z,24.73
2023-02-06T17:37:51.607Z,25.05
2023-02-06T17:40:23.036Z,18.48
2023-02-06T17:42:51.136Z,11.40
2023-02-06T17:45:19.038Z,12.32
2023-02-06T17:47:47.811Z,11.07
2023-02-06T17:50:18.300Z,9.90
2023-02-06T17:52:46.059Z,11.17
2023-02-06T17:55:15.972Z,8.27
2023-02-06T17:57:43.724Z,6.13
2023-02-06T18:00:15.980Z,6.78
2023-02-06T18:02:43.856Z,6.13
2023-02-06T18:05:12.945Z,5.38
2023-02-06T18:07:41.186Z,7.72
2023-02-06T18:10:09.962Z,6.77
2023-02-06T18:12:39.711Z,6.87
2023-02-06T18:15:08.325Z,6.72
2023-02-06T18:17:36.054Z,6.97
2023-02-06T18:20:04.448Z,5.53
2023-02-06T18:22:39.929Z,8.45
2023-02-06T18:25:09.315Z,5.70
2023-02-06T18:27:37.303Z,4.87
2023-02-06T18:30:08.716Z,8.37
2023-02-06T18:32:38.719Z,4.32
2023-02-06T18:35:07.914Z,5.68
2023-02-06T18:37:36.285Z,6.13
2023-02-06T18:40:04.445Z,4.33
2023-02-06T18:42:49.774Z,5.97
2023-02-06T18:45:19.779Z,5.80
2023-02-06T18:47:47.692Z,5.55
2023-02-06T18:50:20.303Z,6.17
2023-02-06T18:52:48.606Z,7.50
2023-02-06T18:55:17.482Z,7.23
2023-02-06T18:57:45.591Z,6.18
2023-02-06T19:00:16.539Z,7.32
2023-02-06T19:02:46.354Z,6.33
2023-02-06T19:05:16.409Z,5.53
2023-02-06T19:07:44.525Z,5.50
2023-02-06T19:10:16.414Z,14.27
2023-02-06T19:12:45.021Z,14.27
2023-02-06T19:15:14.999Z,12.13
2023-02-06T19:17:43.340Z,15.63
2023-02-06T19:20:14.013Z,13.20
2023-02-06T19:22:42.007Z,14.40
2023-02-06T19:25:14.340Z,10.43
2023-02-06T19:27:43.832Z,6.87
2023-02-06T19:30:14.182Z,7.50
2023-02-06T19:32:43.509Z,11.47
2023-02-06T19:35:12.902Z,9.03
2023-02-06T19:37:41.550Z,9.40
2023-02-06T19:40:10.143Z,8.20
2023-02-06T19:42:39.324Z,11.97
2023-02-06T19:45:07.673Z,8.77
2023-02-06T19:47:36.299Z,7.43
2023-02-06T19:50:04.962Z,8.10
2023-02-06T19:52:35.346Z,10.03
2023-02-06T19:55:03.821Z,7.33
2023-02-06T19:57:31.682Z,6.53
2023-02-06T19:59:59.653Z,6.67
2023-02-06T20:02:28.097Z,5.67
2023-02-06T20:04:55.925Z,8.03
2023-02-06T20:07:23.736Z,8.03
2023-02-06T20:09:55.398Z,6.37
2023-02-06T20:12:23.174Z,8.33
2023-02-06T20:14:51.294Z,6.67
2023-02-06T20:17:22.639Z,9.03
2023-02-06T20:19:50.587Z,12.63
2023-02-06T20:22:19.997Z,14.73
2023-02-06T20:24:48.364Z,13.13
2023-02-06T20:27:17.745Z,13.00
2023-02-06T20:29:46.597Z,8.80
2023-02-06T20:32:16.641Z,11.87
2023-02-06T20:34:47.446Z,12.40
2023-02-06T20:37:18.013Z,12.43
2023-02-06T20:39:46.856Z,9.00
2023-02-06T20:42:15.717Z,10.10
2023-02-06T20:44:46.031Z,13.93
2023-02-06T20:47:13.983Z,10.87
2023-02-06T20:49:42.765Z,15.30
2023-02-06T20:52:10.801Z,10.87
2023-02-06T20:54:38.773Z,10.77
2023-02-06T20:57:06.618Z,9.17
2023-02-06T20:59:34.641Z,9.90
2023-02-06T21:02:03.890Z,9.77
2023-02-06T21:04:33.821Z,10.17
2023-02-06T21:07:01.678Z,9.50
2023-02-06T21:09:30.269Z,11.47
2023-02-06T21:11:58.184Z,10.33
2023-02-06T21:14:28.054Z,12.47
2023-02-06T21:16:55.872Z,8.67
2023-02-06T21:19:27.803Z,10.80
2023-02-06T21:21:56.807Z,7.23
2023-02-06T21:24:25.304Z,9.27
2023-02-06T21:26:53.588Z,16.83
2023-02-06T21:29:22.969Z,21.53
2023-02-06T21:31:55.742Z,20.67
2023-02-06T21:34:30.114Z,18.33
2023-02-06T21:36:58.134Z,14.70
2023-02-06T21:39:28.721Z,12.10
2023-02-06T21:41:57.532Z,13.23
2023-02-06T21:44:26.364Z,11.97
2023-02-06T21:46:55.881Z,13.87
2023-02-06T21:49:25.038Z,8.70
2023-02-06T21:51:56.087Z,12.53
2023-02-06T21:54:24.606Z,12.47
2023-02-06T21:56:52.860Z,14.77
2023-02-06T21:59:20.935Z,12.93
2023-02-06T22:01:48.916Z,14.63
2023-02-06T22:04:16.770Z,15.10
2023-02-06T22:06:44.625Z,12.13
2023-02-06T22:09:18.725Z,10.23
2023-02-06T22:11:46.883Z,10.73
2023-02-06T22:14:17.836Z,8.40
2023-02-06T22:16:47.073Z,8.20
2023-02-06T22:19:15.885Z,8.80
2023-02-06T22:21:43.937Z,9.20
2023-02-06T22:24:13.769Z,8.40
2023-02-06T22:26:42.768Z,9.57
2023-02-06T22:29:12.982Z,10.60
2023-02-06T22:31:43.069Z,8.43
2023-02-06T22:34:14.844Z,10.80
2023-02-06T22:36:43.888Z,10.23
2023-02-06T22:39:14.288Z,10.20
2023-02-06T22:41:43.672Z,9.87
2023-02-06T22:44:16.172Z,11.20
2023-02-06T22:46:45.337Z,9.40
2023-02-06T22:49:13.459Z,9.20
2023-02-06T22:51:57.139Z,10.33
2023-02-06T22:54:30.071Z,10.13
2023-02-06T22:56:58.121Z,8.57
2023-02-06T22:59:26.715Z,10.73
2023-02-06T23:01:58.836Z,11.70
2023-02-06T23:04:29.376Z,8.57
2023-02-06T23:06:57.991Z,11.40
2023-02-06T23:09:27.836Z,13.43
2023-02-06T23:11:58.892Z,13.93
2023-02-06T23:14:28.344Z,10.60
2023-02-06T23:16:56.282Z,13.97
2023-02-06T23:19:24.874Z,11.23
2023-02-06T23:21:52.783Z,13.97
2023-02-06T23:24:21.651Z,10.57
2023-02-06T23:26:51.366Z,10.90
2023-02-06T23:29:22.116Z,14.50
2023-02-06T23:31:50.432Z,8.27
2023-02-06T23:34:19.605Z,12.90
2023-02-06T23:36:48.726Z,11.67
2023-02-06T23:39:17.036Z,11.00
2023-02-06T23:41:44.888Z,10.23
2023-02-06T23:44:12.621Z,11.50
2023-02-06T23:46:42.542Z,10.00
2023-02-06T23:49:11.052Z,11.17
2023-02-06T23:51:39.229Z,9.17
2023-02-06T23:54:08.433Z,9.93
2023-02-06T23:56:36.349Z,11.63
2023-02-06T23:59:05.705Z,11.13
